Terminal Aerodrome Forecast
Issued by NWS

Home | Current Version | Previous Version | Text Only | Print | Product List | Glossary On
Versions: 1 2 3 4 5 6 7 8 9 10 11 12
000
FTUS44 KTSA 291120
TAFXNA
TAF
KXNA 291120Z 2912/3012 00000KT P6SM SKC
     FM291400 24006KT P6SM FEW250
     FM300100 VRB03KT P6SM SCT250
     FM300900 03003KT 5SM BR SCT250=

USA.gov is the U.S. government's official web portal to all federal, state and local government web resources and services.